Colter Bay, Wyoming
Current Conditions -  °F | °C
As of 5:15 AM on Sunday 21 Dec 2014 (Local Time) from KJAC Reporting Station
Overcast Overcast  
Wind Chill: 24°   Ceiling: 800
Heat Index: 32°   Visibility: 1mi
Dew Point: 32°   Wind: 9mph
Humidity: 100%   Direction: 200°SSW
Pressure: 29.73"   Gusts: NA
Location:  43.9295°N, 110.33°W
Report Text: KJAC 211215Z 20008KT 1SM OVC008 00/00 A2973 RMK AO1
Loading
Personal Weather Stations






























Interactive Weather Map New forecast layout! Learn more

10-Day Weather Forecast

Advertisements
Track Severe Weather on mobile